メインページ
METAR-TAF:

METAR-TAF

空港 :

アルダビール空港

アルダビール, イラン

緯度: 38-19-35N, 経度: 048-25-28E, 海抜: 1315m

現時点の気象観測

当レポートは37分前の04:00(UTC)に作成
東/北東の風 19kt
気温 0°C
湿度 93%
気圧 1013 hPa
視程: 4000m
高度400ftの千切れ雲あり
高度2500ftの千切れ雲あり
(弱い) 着氷性, 霧雨, 部分的に霧に覆われる, 靄

METAR: OITL 220400Z 07019KT 4000 -FZDZ PRFG BR BKN004 BKN025 M00/M01 Q1013

時間: 09:07 (04:37 UTC)


TAF: 見つかりません

4,000以上の空港の気象観測と天気予報(METAR報とTAF報)

利用可能な観測所は地図上に黄色い丸と赤い丸で示す。

丸の上にカーソルを重ねると観測所名を参照できる。

次にクリックすると気象観測と天気予報を参照できる。

マップの切り替え:黒色「×」印の緑ボタンをクリックして拡大、「-」印の緑ボタンをクリックして縮小、緑色の三角印をクリックして隣りの地図に切り替え


METAR-TAF: